sensor_id;sensor_type;location;lat;lon;timestamp;P1;durP1;ratioP1;P2;durP2;ratioP2
20232;SDS011;37438;55.674;13.074;2023-01-08T00:01:05;2.97;;;2.67;;
20232;SDS011;37438;55.674;13.074;2023-01-08T00:04:10;6.15;;;4.38;;
20232;SDS011;37438;55.674;13.074;2023-01-08T00:07:15;5.03;;;4.57;;
20232;SDS011;37438;55.674;13.074;2023-01-08T00:10:21;6.22;;;4.38;;
20232;SDS011;37438;55.674;13.074;2023-01-08T00:13:26;4.55;;;2.45;;
20232;SDS011;37438;55.674;13.074;2023-01-08T00:16:30;8.10;;;4.28;;
20232;SDS011;37438;55.674;13.074;2023-01-08T00:19:35;4.35;;;3.90;;
20232;SDS011;37438;55.674;13.074;2023-01-08T00:22:40;8.90;;;4.53;;
20232;SDS011;37438;55.674;13.074;2023-01-08T00:25:45;4.72;;;3.47;;
20232;SDS011;37438;55.674;13.074;2023-01-08T00:31:53;5.53;;;3.70;;
20232;SDS011;37438;55.674;13.074;2023-01-08T00:34:58;4.07;;;3.25;;
20232;SDS011;37438;55.674;13.074;2023-01-08T00:38:04;4.47;;;3.10;;
20232;SDS011;37438;55.674;13.074;2023-01-08T00:41:08;5.00;;;3.40;;
20232;SDS011;37438;55.674;13.074;2023-01-08T00:44:13;3.22;;;2.92;;
20232;SDS011;37438;55.674;13.074;2023-01-08T00:47:18;2.80;;;2.55;;
20232;SDS011;37438;55.674;13.074;2023-01-08T00:50:22;2.92;;;2.58;;
20232;SDS011;37438;55.674;13.074;2023-01-08T00:53:27;3.83;;;3.03;;
20232;SDS011;37438;55.674;13.074;2023-01-08T00:56:32;5.97;;;3.58;;
20232;SDS011;37438;55.674;13.074;2023-01-08T00:59:37;4.68;;;3.50;;
20232;SDS011;37438;55.674;13.074;2023-01-08T01:02:42;4.35;;;2.63;;
20232;SDS011;37438;55.674;13.074;2023-01-08T01:05:46;3.35;;;3.10;;
20232;SDS011;37438;55.674;13.074;2023-01-08T01:08:52;3.40;;;3.10;;
20232;SDS011;37438;55.674;13.074;2023-01-08T01:11:56;8.95;;;3.70;;
20232;SDS011;37438;55.674;13.074;2023-01-08T01:15:01;7.05;;;3.30;;
20232;SDS011;37438;55.674;13.074;2023-01-08T01:18:05;3.67;;;2.90;;
20232;SDS011;37438;55.674;13.074;2023-01-08T01:21:18;3.78;;;3.35;;
20232;SDS011;37438;55.674;13.074;2023-01-08T01:24:28;4.57;;;3.53;;
20232;SDS011;37438;55.674;13.074;2023-01-08T01:27:33;5.30;;;3.47;;
20232;SDS011;37438;55.674;13.074;2023-01-08T01:30:38;4.30;;;3.83;;
20232;SDS011;37438;55.674;13.074;2023-01-08T01:33:42;5.23;;;3.77;;
20232;SDS011;37438;55.674;13.074;2023-01-08T01:36:46;5.18;;;4.07;;
20232;SDS011;37438;55.674;13.074;2023-01-08T01:39:51;3.85;;;3.40;;
20232;SDS011;37438;55.674;13.074;2023-01-08T01:42:55;5.75;;;3.70;;
20232;SDS011;37438;55.674;13.074;2023-01-08T01:45:59;9.48;;;5.32;;
20232;SDS011;37438;55.674;13.074;2023-01-08T01:49:07;6.05;;;4.53;;
20232;SDS011;37438;55.674;13.074;2023-01-08T01:52:14;10.32;;;5.60;;
20232;SDS011;37438;55.674;13.074;2023-01-08T01:55:19;9.05;;;5.57;;
20232;SDS011;37438;55.674;13.074;2023-01-08T01:58:25;10.38;;;5.30;;
20232;SDS011;37438;55.674;13.074;2023-01-08T02:01:30;10.52;;;5.82;;
20232;SDS011;37438;55.674;13.074;2023-01-08T02:04:36;11.35;;;6.57;;
20232;SDS011;37438;55.674;13.074;2023-01-08T02:07:55;7.68;;;5.93;;
20232;SDS011;37438;55.674;13.074;2023-01-08T02:11:13;9.43;;;6.07;;
20232;SDS011;37438;55.674;13.074;2023-01-08T02:14:30;9.98;;;5.82;;
20232;SDS011;37438;55.674;13.074;2023-01-08T02:20:54;11.68;;;5.43;;
20232;SDS011;37438;55.674;13.074;2023-01-08T02:27:11;10.93;;;6.22;;
20232;SDS011;37438;55.674;13.074;2023-01-08T02:30:18;16.00;;;6.50;;
20232;SDS011;37438;55.674;13.074;2023-01-08T02:33:23;14.80;;;6.97;;
20232;SDS011;37438;55.674;13.074;2023-01-08T02:39:45;9.75;;;5.57;;
20232;SDS011;37438;55.674;13.074;2023-01-08T02:42:56;20.45;;;6.45;;
20232;SDS011;37438;55.674;13.074;2023-01-08T02:46:03;12.43;;;6.57;;
20232;SDS011;37438;55.674;13.074;2023-01-08T02:49:11;13.48;;;6.50;;
20232;SDS011;37438;55.674;13.074;2023-01-08T02:52:17;18.58;;;6.93;;
20232;SDS011;37438;55.674;13.074;2023-01-08T02:55:22;15.73;;;6.18;;
20232;SDS011;37438;55.674;13.074;2023-01-08T02:58:31;13.07;;;6.35;;
20232;SDS011;37438;55.674;13.074;2023-01-08T03:01:38;11.77;;;7.15;;
20232;SDS011;37438;55.674;13.074;2023-01-08T03:04:45;11.48;;;5.95;;
20232;SDS011;37438;55.674;13.074;2023-01-08T03:07:56;17.85;;;6.38;;
20232;SDS011;37438;55.674;13.074;2023-01-08T03:11:04;12.88;;;7.13;;
20232;SDS011;37438;55.674;13.074;2023-01-08T03:14:12;16.65;;;6.13;;
20232;SDS011;37438;55.674;13.074;2023-01-08T03:17:30;10.02;;;6.60;;
20232;SDS011;37438;55.674;13.074;2023-01-08T03:20:38;13.57;;;6.70;;
20232;SDS011;37438;55.674;13.074;2023-01-08T03:23:43;12.02;;;6.15;;
20232;SDS011;37438;55.674;13.074;2023-01-08T03:26:51;8.05;;;6.07;;
20232;SDS011;37438;55.674;13.074;2023-01-08T03:29:59;19.10;;;6.95;;
20232;SDS011;37438;55.674;13.074;2023-01-08T03:33:04;10.77;;;5.95;;
20232;SDS011;37438;55.674;13.074;2023-01-08T03:36:11;13.68;;;6.93;;
20232;SDS011;37438;55.674;13.074;2023-01-08T03:39:29;11.23;;;6.53;;
20232;SDS011;37438;55.674;13.074;2023-01-08T03:42:38;14.77;;;7.10;;
20232;SDS011;37438;55.674;13.074;2023-01-08T03:45:45;10.45;;;6.20;;
20232;SDS011;37438;55.674;13.074;2023-01-08T03:48:55;14.75;;;6.43;;
20232;SDS011;37438;55.674;13.074;2023-01-08T03:52:00;7.93;;;5.93;;
20232;SDS011;37438;55.674;13.074;2023-01-08T03:55:05;15.15;;;6.45;;
20232;SDS011;37438;55.674;13.074;2023-01-08T03:58:10;10.38;;;6.35;;
20232;SDS011;37438;55.674;13.074;2023-01-08T04:01:15;14.18;;;6.50;;
20232;SDS011;37438;55.674;13.074;2023-01-08T04:04:19;10.60;;;6.57;;
20232;SDS011;37438;55.674;13.074;2023-01-08T04:07:23;7.85;;;5.55;;
20232;SDS011;37438;55.674;13.074;2023-01-08T04:10:28;11.75;;;7.47;;
20232;SDS011;37438;55.674;13.074;2023-01-08T04:13:32;13.85;;;5.78;;
20232;SDS011;37438;55.674;13.074;2023-01-08T04:16:36;9.68;;;6.43;;
20232;SDS011;37438;55.674;13.074;2023-01-08T04:19:41;10.67;;;6.00;;
20232;SDS011;37438;55.674;13.074;2023-01-08T04:22:45;7.88;;;5.38;;
20232;SDS011;37438;55.674;13.074;2023-01-08T04:25:49;6.32;;;4.32;;
20232;SDS011;37438;55.674;13.074;2023-01-08T04:28:54;6.65;;;5.40;;
20232;SDS011;37438;55.674;13.074;2023-01-08T04:31:59;6.28;;;4.68;;
20232;SDS011;37438;55.674;13.074;2023-01-08T04:35:04;7.68;;;5.65;;
20232;SDS011;37438;55.674;13.074;2023-01-08T04:38:08;6.85;;;4.80;;
20232;SDS011;37438;55.674;13.074;2023-01-08T04:41:14;16.83;;;5.75;;
20232;SDS011;37438;55.674;13.074;2023-01-08T04:44:21;12.02;;;4.68;;
20232;SDS011;37438;55.674;13.074;2023-01-08T04:47:26;6.88;;;5.57;;
20232;SDS011;37438;55.674;13.074;2023-01-08T04:50:30;9.85;;;5.32;;
20232;SDS011;37438;55.674;13.074;2023-01-08T04:56:40;7.68;;;5.57;;
20232;SDS011;37438;55.674;13.074;2023-01-08T04:59:45;8.38;;;5.38;;
20232;SDS011;37438;55.674;13.074;2023-01-08T05:02:49;8.02;;;4.40;;
20232;SDS011;37438;55.674;13.074;2023-01-08T05:05:54;7.63;;;6.40;;
20232;SDS011;37438;55.674;13.074;2023-01-08T05:08:58;5.85;;;4.07;;
20232;SDS011;37438;55.674;13.074;2023-01-08T05:12:03;5.82;;;5.22;;
20232;SDS011;37438;55.674;13.074;2023-01-08T05:15:08;8.43;;;5.20;;
20232;SDS011;37438;55.674;13.074;2023-01-08T05:18:13;5.47;;;4.72;;
20232;SDS011;37438;55.674;13.074;2023-01-08T05:21:17;12.93;;;6.97;;
20232;SDS011;37438;55.674;13.074;2023-01-08T05:24:22;11.43;;;4.53;;
20232;SDS011;37438;55.674;13.074;2023-01-08T05:27:27;5.85;;;4.40;;
20232;SDS011;37438;55.674;13.074;2023-01-08T05:30:32;4.78;;;4.32;;
20232;SDS011;37438;55.674;13.074;2023-01-08T05:33:36;6.03;;;4.78;;
20232;SDS011;37438;55.674;13.074;2023-01-08T05:39:46;7.18;;;4.28;;
20232;SDS011;37438;55.674;13.074;2023-01-08T05:42:50;10.57;;;5.30;;
20232;SDS011;37438;55.674;13.074;2023-01-08T05:45:56;5.47;;;4.63;;
20232;SDS011;37438;55.674;13.074;2023-01-08T05:49:02;8.20;;;5.40;;
20232;SDS011;37438;55.674;13.074;2023-01-08T05:52:07;6.03;;;4.33;;
20232;SDS011;37438;55.674;13.074;2023-01-08T05:55:11;5.60;;;3.72;;
20232;SDS011;37438;55.674;13.074;2023-01-08T05:58:16;9.38;;;3.60;;
20232;SDS011;37438;55.674;13.074;2023-01-08T06:01:23;5.60;;;4.70;;
20232;SDS011;37438;55.674;13.074;2023-01-08T06:04:27;9.90;;;3.92;;
20232;SDS011;37438;55.674;13.074;2023-01-08T06:07:32;5.55;;;3.67;;
20232;SDS011;37438;55.674;13.074;2023-01-08T06:10:37;4.03;;;3.63;;
20232;SDS011;37438;55.674;13.074;2023-01-08T06:13:42;3.92;;;3.50;;
20232;SDS011;37438;55.674;13.074;2023-01-08T06:16:47;4.85;;;3.88;;
20232;SDS011;37438;55.674;13.074;2023-01-08T06:19:51;8.07;;;4.45;;
20232;SDS011;37438;55.674;13.074;2023-01-08T06:22:56;7.03;;;3.65;;
20232;SDS011;37438;55.674;13.074;2023-01-08T06:26:01;7.93;;;3.88;;
20232;SDS011;37438;55.674;13.074;2023-01-08T06:29:06;5.93;;;4.65;;
20232;SDS011;37438;55.674;13.074;2023-01-08T06:32:12;5.82;;;5.03;;
20232;SDS011;37438;55.674;13.074;2023-01-08T06:35:16;5.65;;;4.10;;
20232;SDS011;37438;55.674;13.074;2023-01-08T06:38:20;6.47;;;3.30;;
20232;SDS011;37438;55.674;13.074;2023-01-08T06:44:30;6.57;;;4.53;;
20232;SDS011;37438;55.674;13.074;2023-01-08T06:47:34;6.88;;;4.63;;
20232;SDS011;37438;55.674;13.074;2023-01-08T06:50:39;4.25;;;3.83;;
20232;SDS011;37438;55.674;13.074;2023-01-08T06:53:46;4.45;;;4.03;;
20232;SDS011;37438;55.674;13.074;2023-01-08T06:56:51;5.15;;;3.90;;
20232;SDS011;37438;55.674;13.074;2023-01-08T06:59:57;6.25;;;4.93;;
20232;SDS011;37438;55.674;13.074;2023-01-08T07:03:01;13.45;;;4.95;;
20232;SDS011;37438;55.674;13.074;2023-01-08T07:06:06;6.82;;;4.45;;
20232;SDS011;37438;55.674;13.074;2023-01-08T07:09:17;9.65;;;5.65;;
20232;SDS011;37438;55.674;13.074;2023-01-08T07:12:23;8.05;;;4.78;;
20232;SDS011;37438;55.674;13.074;2023-01-08T07:15:28;7.18;;;4.82;;
20232;SDS011;37438;55.674;13.074;2023-01-08T07:18:32;9.02;;;5.43;;
20232;SDS011;37438;55.674;13.074;2023-01-08T07:24:41;10.77;;;4.85;;
20232;SDS011;37438;55.674;13.074;2023-01-08T07:27:47;6.13;;;4.93;;
20232;SDS011;37438;55.674;13.074;2023-01-08T07:30:52;6.47;;;5.28;;
20232;SDS011;37438;55.674;13.074;2023-01-08T07:33:57;4.63;;;4.03;;
20232;SDS011;37438;55.674;13.074;2023-01-08T07:37:01;7.27;;;6.00;;
20232;SDS011;37438;55.674;13.074;2023-01-08T07:40:07;7.05;;;5.25;;
20232;SDS011;37438;55.674;13.074;2023-01-08T07:43:12;9.10;;;6.43;;
20232;SDS011;37438;55.674;13.074;2023-01-08T07:46:17;10.15;;;6.00;;
20232;SDS011;37438;55.674;13.074;2023-01-08T07:49:21;6.05;;;4.20;;
20232;SDS011;37438;55.674;13.074;2023-01-08T07:52:26;9.43;;;5.50;;
20232;SDS011;37438;55.674;13.074;2023-01-08T07:55:30;8.95;;;6.03;;
20232;SDS011;37438;55.674;13.074;2023-01-08T07:58:35;7.85;;;5.40;;
20232;SDS011;37438;55.674;13.074;2023-01-08T08:01:40;12.25;;;5.88;;
20232;SDS011;37438;55.674;13.074;2023-01-08T08:04:45;7.68;;;5.70;;
20232;SDS011;37438;55.674;13.074;2023-01-08T08:07:49;8.10;;;5.75;;
20232;SDS011;37438;55.674;13.074;2023-01-08T08:10:53;10.68;;;5.85;;
20232;SDS011;37438;55.674;13.074;2023-01-08T08:13:58;9.95;;;5.88;;
20232;SDS011;37438;55.674;13.074;2023-01-08T08:17:02;5.57;;;4.93;;
20232;SDS011;37438;55.674;13.074;2023-01-08T08:20:07;7.63;;;6.03;;
20232;SDS011;37438;55.674;13.074;2023-01-08T08:23:13;8.88;;;5.72;;
20232;SDS011;37438;55.674;13.074;2023-01-08T08:26:18;9.70;;;7.38;;
20232;SDS011;37438;55.674;13.074;2023-01-08T08:29:22;13.07;;;5.97;;
20232;SDS011;37438;55.674;13.074;2023-01-08T08:32:26;7.37;;;5.23;;
20232;SDS011;37438;55.674;13.074;2023-01-08T08:35:31;7.50;;;4.78;;
20232;SDS011;37438;55.674;13.074;2023-01-08T08:38:37;6.10;;;5.15;;
20232;SDS011;37438;55.674;13.074;2023-01-08T08:41:42;9.10;;;5.55;;
20232;SDS011;37438;55.674;13.074;2023-01-08T08:44:47;6.93;;;4.63;;
20232;SDS011;37438;55.674;13.074;2023-01-08T08:47:51;8.32;;;5.47;;
20232;SDS011;37438;55.674;13.074;2023-01-08T08:50:56;9.98;;;4.38;;
20232;SDS011;37438;55.674;13.074;2023-01-08T08:54:00;7.57;;;5.40;;
20232;SDS011;37438;55.674;13.074;2023-01-08T08:57:05;8.95;;;4.90;;
20232;SDS011;37438;55.674;13.074;2023-01-08T09:00:13;10.20;;;6.47;;
20232;SDS011;37438;55.674;13.074;2023-01-08T09:03:18;10.43;;;6.90;;
20232;SDS011;37438;55.674;13.074;2023-01-08T09:06:23;9.30;;;6.70;;
20232;SDS011;37438;55.674;13.074;2023-01-08T09:09:30;7.28;;;6.20;;
20232;SDS011;37438;55.674;13.074;2023-01-08T09:12:35;9.30;;;5.57;;
20232;SDS011;37438;55.674;13.074;2023-01-08T09:15:39;8.88;;;5.47;;
20232;SDS011;37438;55.674;13.074;2023-01-08T09:18:43;10.07;;;6.40;;
20232;SDS011;37438;55.674;13.074;2023-01-08T09:21:48;12.70;;;5.95;;
20232;SDS011;37438;55.674;13.074;2023-01-08T09:28:01;8.20;;;6.20;;
20232;SDS011;37438;55.674;13.074;2023-01-08T09:31:07;11.18;;;5.80;;
20232;SDS011;37438;55.674;13.074;2023-01-08T09:34:12;10.35;;;6.03;;
20232;SDS011;37438;55.674;13.074;2023-01-08T09:37:16;10.13;;;4.80;;
20232;SDS011;37438;55.674;13.074;2023-01-08T09:40:21;9.20;;;5.88;;
20232;SDS011;37438;55.674;13.074;2023-01-08T09:43:32;10.57;;;6.40;;
20232;SDS011;37438;55.674;13.074;2023-01-08T09:46:39;7.65;;;5.35;;
20232;SDS011;37438;55.674;13.074;2023-01-08T09:49:45;8.48;;;5.93;;
20232;SDS011;37438;55.674;13.074;2023-01-08T09:52:52;7.90;;;5.97;;
20232;SDS011;37438;55.674;13.074;2023-01-08T09:55:58;6.57;;;5.53;;
20232;SDS011;37438;55.674;13.074;2023-01-08T10:02:20;7.00;;;5.68;;
20232;SDS011;37438;55.674;13.074;2023-01-08T10:05:27;8.45;;;6.28;;
20232;SDS011;37438;55.674;13.074;2023-01-08T10:08:33;15.25;;;6.80;;
20232;SDS011;37438;55.674;13.074;2023-01-08T10:11:39;7.57;;;5.57;;
20232;SDS011;37438;55.674;13.074;2023-01-08T10:14:46;6.88;;;5.35;;
20232;SDS011;37438;55.674;13.074;2023-01-08T10:18:06;8.23;;;6.47;;
20232;SDS011;37438;55.674;13.074;2023-01-08T10:21:15;11.10;;;6.57;;
20232;SDS011;37438;55.674;13.074;2023-01-08T10:24:33;6.97;;;6.28;;
20232;SDS011;37438;55.674;13.074;2023-01-08T10:30:53;11.27;;;6.57;;
20232;SDS011;37438;55.674;13.074;2023-01-08T10:35:02;7.50;;;5.72;;
20232;SDS011;37438;55.674;13.074;2023-01-08T10:37:53;6.97;;;5.65;;
20232;SDS011;37438;55.674;13.074;2023-01-08T10:40:57;9.32;;;6.03;;
20232;SDS011;37438;55.674;13.074;2023-01-08T10:44:15;12.77;;;5.53;;
20232;SDS011;37438;55.674;13.074;2023-01-08T10:47:21;11.52;;;5.72;;
20232;SDS011;37438;55.674;13.074;2023-01-08T10:50:29;8.20;;;6.05;;
20232;SDS011;37438;55.674;13.074;2023-01-08T10:53:34;8.88;;;5.75;;
20232;SDS011;37438;55.674;13.074;2023-01-08T10:56:40;6.40;;;5.78;;
20232;SDS011;37438;55.674;13.074;2023-01-08T10:59:46;8.57;;;5.45;;
20232;SDS011;37438;55.674;13.074;2023-01-08T11:02:50;6.82;;;5.82;;
20232;SDS011;37438;55.674;13.074;2023-01-08T11:05:55;7.28;;;5.68;;
20232;SDS011;37438;55.674;13.074;2023-01-08T11:09:00;7.78;;;5.72;;
20232;SDS011;37438;55.674;13.074;2023-01-08T11:15:42;6.78;;;5.35;;
20232;SDS011;37438;55.674;13.074;2023-01-08T11:18:47;8.93;;;5.75;;
20232;SDS011;37438;55.674;13.074;2023-01-08T11:21:55;7.68;;;6.07;;
20232;SDS011;37438;55.674;13.074;2023-01-08T11:25:04;11.75;;;6.97;;
20232;SDS011;37438;55.674;13.074;2023-01-08T11:28:20;7.38;;;5.90;;
20232;SDS011;37438;55.674;13.074;2023-01-08T11:31:51;9.70;;;6.35;;
20232;SDS011;37438;55.674;13.074;2023-01-08T11:35:12;8.95;;;6.20;;
20232;SDS011;37438;55.674;13.074;2023-01-08T11:38:28;9.82;;;7.05;;
20232;SDS011;37438;55.674;13.074;2023-01-08T11:41:44;9.37;;;6.43;;
20232;SDS011;37438;55.674;13.074;2023-01-08T11:58:26;10.38;;;5.82;;
20232;SDS011;37438;55.674;13.074;2023-01-08T12:08:34;10.48;;;6.32;;
20232;SDS011;37438;55.674;13.074;2023-01-08T12:12:17;8.73;;;6.13;;
20232;SDS011;37438;55.674;13.074;2023-01-08T12:15:42;9.30;;;5.80;;
20232;SDS011;37438;55.674;13.074;2023-01-08T12:22:24;8.68;;;5.10;;
20232;SDS011;37438;55.674;13.074;2023-01-08T12:29:03;9.68;;;6.30;;
20232;SDS011;37438;55.674;13.074;2023-01-08T12:32:31;6.72;;;5.00;;
20232;SDS011;37438;55.674;13.074;2023-01-08T12:35:42;6.53;;;4.93;;
20232;SDS011;37438;55.674;13.074;2023-01-08T12:38:52;9.00;;;5.80;;
20232;SDS011;37438;55.674;13.074;2023-01-08T12:42:13;9.60;;;5.93;;
20232;SDS011;37438;55.674;13.074;2023-01-08T12:45:31;6.72;;;5.78;;
20232;SDS011;37438;55.674;13.074;2023-01-08T12:48:39;8.70;;;5.40;;
20232;SDS011;37438;55.674;13.074;2023-01-08T12:54:58;13.02;;;5.78;;
20232;SDS011;37438;55.674;13.074;2023-01-08T12:58:30;9.77;;;6.25;;
20232;SDS011;37438;55.674;13.074;2023-01-08T13:11:36;11.73;;;6.43;;
20232;SDS011;37438;55.674;13.074;2023-01-08T13:14:46;10.18;;;6.45;;
20232;SDS011;37438;55.674;13.074;2023-01-08T13:17:53;14.55;;;8.10;;
20232;SDS011;37438;55.674;13.074;2023-01-08T13:21:28;12.68;;;7.90;;
20232;SDS011;37438;55.674;13.074;2023-01-08T13:31:38;13.77;;;8.07;;
20232;SDS011;37438;55.674;13.074;2023-01-08T13:34:44;10.90;;;7.43;;
20232;SDS011;37438;55.674;13.074;2023-01-08T13:37:50;11.73;;;6.53;;
20232;SDS011;37438;55.674;13.074;2023-01-08T13:41:26;13.82;;;8.20;;
20232;SDS011;37438;55.674;13.074;2023-01-08T13:44:34;12.63;;;7.85;;
20232;SDS011;37438;55.674;13.074;2023-01-08T13:47:45;17.63;;;9.10;;
20232;SDS011;37438;55.674;13.074;2023-01-08T13:50:49;22.35;;;7.95;;
20232;SDS011;37438;55.674;13.074;2023-01-08T13:57:03;11.30;;;7.30;;
20232;SDS011;37438;55.674;13.074;2023-01-08T14:03:28;13.52;;;7.22;;
20232;SDS011;37438;55.674;13.074;2023-01-08T14:06:32;11.05;;;7.78;;
20232;SDS011;37438;55.674;13.074;2023-01-08T14:09:39;13.27;;;8.35;;
20232;SDS011;37438;55.674;13.074;2023-01-08T14:12:44;10.00;;;7.53;;
20232;SDS011;37438;55.674;13.074;2023-01-08T14:15:49;9.43;;;7.18;;
20232;SDS011;37438;55.674;13.074;2023-01-08T14:18:56;14.73;;;8.10;;
20232;SDS011;37438;55.674;13.074;2023-01-08T14:22:04;11.18;;;6.70;;
20232;SDS011;37438;55.674;13.074;2023-01-08T14:25:18;16.23;;;8.27;;
20232;SDS011;37438;55.674;13.074;2023-01-08T14:28:23;11.77;;;7.78;;
20232;SDS011;37438;55.674;13.074;2023-01-08T14:31:28;11.02;;;7.68;;
20232;SDS011;37438;55.674;13.074;2023-01-08T14:34:32;15.27;;;8.77;;
20232;SDS011;37438;55.674;13.074;2023-01-08T14:37:40;10.43;;;7.53;;
20232;SDS011;37438;55.674;13.074;2023-01-08T14:40:46;13.35;;;8.10;;
20232;SDS011;37438;55.674;13.074;2023-01-08T14:43:53;14.70;;;8.93;;
20232;SDS011;37438;55.674;13.074;2023-01-08T14:46:58;16.57;;;8.00;;
20232;SDS011;37438;55.674;13.074;2023-01-08T14:50:02;13.13;;;7.93;;
20232;SDS011;37438;55.674;13.074;2023-01-08T14:53:19;10.88;;;7.40;;
20232;SDS011;37438;55.674;13.074;2023-01-08T14:56:31;14.85;;;9.82;;
20232;SDS011;37438;55.674;13.074;2023-01-08T14:59:37;11.65;;;8.52;;
20232;SDS011;37438;55.674;13.074;2023-01-08T15:02:42;16.25;;;9.77;;
20232;SDS011;37438;55.674;13.074;2023-01-08T15:05:48;17.17;;;10.50;;
20232;SDS011;37438;55.674;13.074;2023-01-08T15:08:57;22.98;;;10.50;;
20232;SDS011;37438;55.674;13.074;2023-01-08T15:12:04;17.67;;;10.20;;
20232;SDS011;37438;55.674;13.074;2023-01-08T15:15:10;18.30;;;13.23;;
20232;SDS011;37438;55.674;13.074;2023-01-08T15:21:29;17.45;;;11.23;;
20232;SDS011;37438;55.674;13.074;2023-01-08T15:24:34;16.77;;;11.15;;
20232;SDS011;37438;55.674;13.074;2023-01-08T15:27:49;14.27;;;11.27;;
20232;SDS011;37438;55.674;13.074;2023-01-08T15:30:57;21.40;;;11.65;;
20232;SDS011;37438;55.674;13.074;2023-01-08T15:34:01;23.27;;;12.80;;
20232;SDS011;37438;55.674;13.074;2023-01-08T15:37:07;21.85;;;12.57;;
20232;SDS011;37438;55.674;13.074;2023-01-08T15:40:11;14.93;;;9.77;;
20232;SDS011;37438;55.674;13.074;2023-01-08T15:43:17;18.45;;;12.18;;
20232;SDS011;37438;55.674;13.074;2023-01-08T15:46:21;21.05;;;12.25;;
20232;SDS011;37438;55.674;13.074;2023-01-08T15:49:26;24.95;;;14.73;;
20232;SDS011;37438;55.674;13.074;2023-01-08T15:52:30;19.98;;;13.23;;
20232;SDS011;37438;55.674;13.074;2023-01-08T15:55:36;21.38;;;12.90;;
20232;SDS011;37438;55.674;13.074;2023-01-08T15:58:40;18.35;;;10.90;;
20232;SDS011;37438;55.674;13.074;2023-01-08T16:01:45;17.10;;;10.53;;
20232;SDS011;37438;55.674;13.074;2023-01-08T16:04:52;24.38;;;14.02;;
20232;SDS011;37438;55.674;13.074;2023-01-08T16:08:00;22.02;;;12.38;;
20232;SDS011;37438;55.674;13.074;2023-01-08T16:11:05;30.13;;;12.45;;
20232;SDS011;37438;55.674;13.074;2023-01-08T16:14:10;23.05;;;13.55;;
20232;SDS011;37438;55.674;13.074;2023-01-08T16:17:15;26.35;;;13.57;;
20232;SDS011;37438;55.674;13.074;2023-01-08T16:20:19;21.30;;;11.80;;
20232;SDS011;37438;55.674;13.074;2023-01-08T16:23:24;22.73;;;13.43;;
20232;SDS011;37438;55.674;13.074;2023-01-08T16:26:28;26.10;;;14.27;;
20232;SDS011;37438;55.674;13.074;2023-01-08T16:29:32;25.90;;;14.25;;
20232;SDS011;37438;55.674;13.074;2023-01-08T16:32:37;20.48;;;12.05;;
20232;SDS011;37438;55.674;13.074;2023-01-08T16:35:41;17.33;;;9.70;;
20232;SDS011;37438;55.674;13.074;2023-01-08T16:38:46;21.05;;;12.57;;
20232;SDS011;37438;55.674;13.074;2023-01-08T16:41:51;20.75;;;12.77;;
20232;SDS011;37438;55.674;13.074;2023-01-08T16:44:56;19.50;;;12.67;;
20232;SDS011;37438;55.674;13.074;2023-01-08T16:48:00;18.33;;;12.68;;
20232;SDS011;37438;55.674;13.074;2023-01-08T16:54:11;19.17;;;12.23;;
20232;SDS011;37438;55.674;13.074;2023-01-08T16:57:17;21.33;;;12.98;;
20232;SDS011;37438;55.674;13.074;2023-01-08T17:00:21;19.25;;;11.02;;
20232;SDS011;37438;55.674;13.074;2023-01-08T17:03:26;15.95;;;11.70;;
20232;SDS011;37438;55.674;13.074;2023-01-08T17:06:30;21.80;;;13.38;;
20232;SDS011;37438;55.674;13.074;2023-01-08T17:09:35;19.77;;;11.98;;
20232;SDS011;37438;55.674;13.074;2023-01-08T17:12:39;20.55;;;12.43;;
20232;SDS011;37438;55.674;13.074;2023-01-08T17:15:44;17.63;;;11.00;;
20232;SDS011;37438;55.674;13.074;2023-01-08T17:18:49;16.70;;;11.23;;
20232;SDS011;37438;55.674;13.074;2023-01-08T17:21:53;14.23;;;10.50;;
20232;SDS011;37438;55.674;13.074;2023-01-08T17:24:58;15.60;;;10.05;;
20232;SDS011;37438;55.674;13.074;2023-01-08T17:28:02;18.40;;;11.38;;
20232;SDS011;37438;55.674;13.074;2023-01-08T17:34:16;16.20;;;10.93;;
20232;SDS011;37438;55.674;13.074;2023-01-08T17:37:21;19.23;;;11.20;;
20232;SDS011;37438;55.674;13.074;2023-01-08T17:40:25;19.10;;;10.48;;
20232;SDS011;37438;55.674;13.074;2023-01-08T17:43:33;15.95;;;10.88;;
20232;SDS011;37438;55.674;13.074;2023-01-08T17:46:40;13.57;;;10.55;;
20232;SDS011;37438;55.674;13.074;2023-01-08T17:49:50;21.20;;;11.23;;
20232;SDS011;37438;55.674;13.074;2023-01-08T17:52:56;17.98;;;12.82;;
20232;SDS011;37438;55.674;13.074;2023-01-08T17:56:01;18.83;;;12.57;;
20232;SDS011;37438;55.674;13.074;2023-01-08T17:59:11;19.45;;;12.70;;
20232;SDS011;37438;55.674;13.074;2023-01-08T18:02:17;21.98;;;12.77;;
20232;SDS011;37438;55.674;13.074;2023-01-08T18:05:23;16.83;;;12.07;;
20232;SDS011;37438;55.674;13.074;2023-01-08T18:08:28;22.33;;;13.30;;
20232;SDS011;37438;55.674;13.074;2023-01-08T18:11:32;18.33;;;11.18;;
20232;SDS011;37438;55.674;13.074;2023-01-08T18:14:36;19.45;;;14.15;;
20232;SDS011;37438;55.674;13.074;2023-01-08T18:17:42;18.00;;;13.15;;
20232;SDS011;37438;55.674;13.074;2023-01-08T18:20:47;18.80;;;12.75;;
20232;SDS011;37438;55.674;13.074;2023-01-08T18:23:56;22.15;;;13.30;;
20232;SDS011;37438;55.674;13.074;2023-01-08T18:27:01;18.43;;;12.83;;
20232;SDS011;37438;55.674;13.074;2023-01-08T18:30:05;21.23;;;14.73;;
20232;SDS011;37438;55.674;13.074;2023-01-08T18:36:18;21.00;;;12.43;;
20232;SDS011;37438;55.674;13.074;2023-01-08T18:39:23;17.40;;;12.95;;
20232;SDS011;37438;55.674;13.074;2023-01-08T18:42:30;17.25;;;12.35;;
20232;SDS011;37438;55.674;13.074;2023-01-08T18:45:36;18.02;;;12.82;;
20232;SDS011;37438;55.674;13.074;2023-01-08T18:48:42;15.32;;;10.73;;
20232;SDS011;37438;55.674;13.074;2023-01-08T18:51:46;18.15;;;12.52;;
20232;SDS011;37438;55.674;13.074;2023-01-08T18:54:51;18.00;;;12.40;;
20232;SDS011;37438;55.674;13.074;2023-01-08T19:01:02;18.70;;;11.90;;
20232;SDS011;37438;55.674;13.074;2023-01-08T19:04:10;17.63;;;11.93;;
20232;SDS011;37438;55.674;13.074;2023-01-08T19:07:19;17.08;;;12.10;;
20232;SDS011;37438;55.674;13.074;2023-01-08T19:10:24;13.15;;;11.57;;
20232;SDS011;37438;55.674;13.074;2023-01-08T19:13:29;16.58;;;12.32;;
20232;SDS011;37438;55.674;13.074;2023-01-08T19:16:33;18.13;;;11.82;;
20232;SDS011;37438;55.674;13.074;2023-01-08T19:19:37;16.20;;;12.73;;
20232;SDS011;37438;55.674;13.074;2023-01-08T19:22:42;23.73;;;12.82;;
20232;SDS011;37438;55.674;13.074;2023-01-08T19:25:46;19.70;;;11.63;;
20232;SDS011;37438;55.674;13.074;2023-01-08T19:28:51;16.23;;;11.95;;
20232;SDS011;37438;55.674;13.074;2023-01-08T19:31:55;16.45;;;12.30;;
20232;SDS011;37438;55.674;13.074;2023-01-08T19:35:00;19.55;;;14.13;;
20232;SDS011;37438;55.674;13.074;2023-01-08T19:38:05;20.92;;;14.18;;
20232;SDS011;37438;55.674;13.074;2023-01-08T19:44:33;20.15;;;14.10;;
20232;SDS011;37438;55.674;13.074;2023-01-08T19:47:37;28.80;;;15.80;;
20232;SDS011;37438;55.674;13.074;2023-01-08T19:50:42;24.88;;;15.85;;
20232;SDS011;37438;55.674;13.074;2023-01-08T19:53:50;22.50;;;16.23;;
20232;SDS011;37438;55.674;13.074;2023-01-08T19:56:55;21.13;;;16.25;;
20232;SDS011;37438;55.674;13.074;2023-01-08T20:00:00;24.55;;;15.70;;
20232;SDS011;37438;55.674;13.074;2023-01-08T20:03:14;26.73;;;17.23;;
20232;SDS011;37438;55.674;13.074;2023-01-08T20:06:24;19.95;;;15.45;;